PWSweather.com
Personal Weather Stations
Station Observations
AUMAP01
Sunshine Coast Hinterland, MapletonAU 4560

Sunshine Coast HinterlandMapletonAU 4560

Lat: -26.61972, Lon: 152.85944

Elevation: 1319

Station Type: Davis Vantage Pro 2

http://mapletonweather.mykoala.net

Latest ConditionsUpdated 2:20:02 PM GMT+10:10 Monday, Jun 25, 2018
Currently Today's Max Today's Min Today's Average
Temperature 59.4°F15.2°C 59.4°F15.2°C 48.0°F8.9°C 52.4°F11.3°C
Dew Point 54.3°F12.4°C 54.5°F12.5°C 46.6°F8.1°C 50.4°F10.2°C
Winds 2.0 mph SE3.2 kmh SE 3.0 mph -4.8 kmh - - 1.1 mph 1.8 kmh
Wind Gusts 8.0 mph12.9 kmh 12.0 mph19.3 kmh - -
Humidity 83% 97% 83% 93%
Pressure 30.32 in1026.8 mb 30.41 in1029.8 mb 30.30 in1026.1 mb -
Precipitation - 0.02 in0.5 mm - -
Hour Temp Dew Point Humidity Winds Wind Gusts Pressure Precip Precip Rate Daily Precip Total
02:20 PM 59.4°F15.2°C 54.3°F12.4°C 83% 2.0 mph SE3.2 kmh SE 8.0 mph12.9 kmh 30.32 in1026.8 mb 0.00 in0.0 mm 0.00 in0.0 mm 0.02 in0.5 mm
02:10 PM 59.2°F15.1°C 54.0°F12.2°C 83% 3.0 mph SE4.8 kmh SE 7.0 mph11.3 kmh 30.32 in1026.8 mb 0.00 in0.0 mm 0.00 in0.0 mm 0.02 in0.5 mm
02:00 PM 58.5°F14.7°C 53.6°F12.0°C 84% 2.0 mph SSE3.2 kmh SSE 5.0 mph8.0 kmh 30.33 in1027.1 mb 0.01 in0.3 mm 0.00 in0.0 mm 0.02 in0.5 mm
01:50 PM 58.3°F14.6°C 53.8°F12.1°C 85% 2.0 mph SSE3.2 kmh SSE 5.0 mph8.0 kmh 30.33 in1027.1 mb 0.01 in0.3 mm 0.00 in0.0 mm 0.02 in0.5 mm
01:40 PM 58.1°F14.5°C 53.6°F12.0°C 85% 2.0 mph SSE3.2 kmh SSE 8.0 mph12.9 kmh 30.33 in1027.1 mb 0.01 in0.3 mm 0.00 in0.0 mm 0.02 in0.5 mm
01:30 PM 58.1°F14.5°C 53.6°F12.0°C 85% 2.0 mph S3.2 kmh S 5.0 mph8.0 kmh 30.32 in1026.8 mb 0.01 in0.3 mm 0.00 in0.0 mm 0.02 in0.5 mm
01:20 PM 57.9°F14.4°C 53.6°F12.0°C 85% 3.0 mph S4.8 kmh S 8.0 mph12.9 kmh 30.32 in1026.8 mb 0.01 in0.3 mm 0.00 in0.0 mm 0.02 in0.5 mm
01:10 PM 58.3°F14.6°C 54.5°F12.5°C 87% 2.0 mph SSE3.2 kmh SSE 8.0 mph12.9 kmh 30.33 in1027.1 mb 0.01 in0.3 mm 0.06 in1.5 mm 0.02 in0.5 mm
01:00 PM 58.8°F14.9°C 54.1°F12.3°C 84% 3.0 mph SSE4.8 kmh SSE 9.0 mph14.5 kmh 30.33 in1027.1 mb 0.00 in0.0 mm 0.00 in0.0 mm 0.02 in0.5 mm
12:50 PM 59.2°F15.1°C 54.3°F12.4°C 84% 2.0 mph SE3.2 kmh SE 12.0 mph19.3 kmh 30.33 in1027.1 mb 0.00 in0.0 mm 0.00 in0.0 mm 0.02 in0.5 mm
12:40 PM 58.1°F14.5°C 54.3°F12.4°C 87% 2.0 mph S3.2 kmh S 6.0 mph9.7 kmh 30.34 in1027.4 mb 0.00 in0.0 mm 0.00 in0.0 mm 0.02 in0.5 mm
12:30 PM 57.6°F14.2°C 54.5°F12.5°C 90% 1.0 mph S1.6 kmh S 5.0 mph8.0 kmh 30.35 in1027.8 mb 0.00 in0.0 mm 0.00 in0.0 mm 0.02 in0.5 mm
12:20 PM 57.0°F13.9°C 54.1°F12.3°C 90% 2.0 mph S3.2 kmh S 4.0 mph6.4 kmh 30.36 in1028.1 mb 0.00 in0.0 mm 0.00 in0.0 mm 0.02 in0.5 mm
12:10 PM 56.8°F13.8°C 54.0°F12.2°C 90% 1.0 mph S1.6 kmh S 3.0 mph4.8 kmh 30.37 in1028.4 mb 0.00 in0.0 mm 0.00 in0.0 mm 0.02 in0.5 mm
12:00 PM 56.7°F13.7°C 53.8°F12.1°C 90% 2.0 mph S3.2 kmh S 4.0 mph6.4 kmh 30.37 in1028.4 mb 0.00 in0.0 mm 0.00 in0.0 mm 0.02 in0.5 mm
11:50 AM 56.3°F13.5°C 53.1°F11.7°C 89% 2.0 mph S3.2 kmh S 5.0 mph8.0 kmh 30.38 in1028.8 mb 0.00 in0.0 mm 0.00 in0.0 mm 0.02 in0.5 mm
11:40 AM 55.9°F13.3°C 53.4°F11.9°C 91% 1.0 mph S1.6 kmh S 3.0 mph4.8 kmh 30.38 in1028.8 mb 0.00 in0.0 mm 0.00 in0.0 mm 0.02 in0.5 mm
11:30 AM 55.6°F13.1°C 53.2°F11.8°C 92% 2.0 mph S3.2 kmh S 5.0 mph8.0 kmh 30.38 in1028.8 mb 0.00 in0.0 mm 0.00 in0.0 mm 0.02 in0.5 mm
11:20 AM 55.4°F13.0°C 53.1°F11.7°C 92% 1.0 mph S1.6 kmh S 5.0 mph8.0 kmh 30.39 in1029.1 mb 0.00 in0.0 mm 0.00 in0.0 mm 0.02 in0.5 mm
11:10 AM 55.2°F12.9°C 53.2°F11.8°C 93% 1.0 mph S1.6 kmh S 3.0 mph4.8 kmh 30.39 in1029.1 mb 0.00 in0.0 mm 0.00 in0.0 mm 0.02 in0.5 mm
11:00 AM 54.9°F12.7°C 53.2°F11.8°C 94% 1.0 mph SSW1.6 kmh SSW 5.0 mph8.0 kmh 30.39 in1029.1 mb 0.00 in0.0 mm 0.00 in0.0 mm 0.02 in0.5 mm
10:50 AM 54.5°F12.5°C 52.5°F11.4°C 93% 2.0 mph SSE3.2 kmh SSE 6.0 mph9.7 kmh 30.39 in1029.1 mb 0.00 in0.0 mm 0.00 in0.0 mm 0.02 in0.5 mm
10:40 AM 54.5°F12.5°C 52.5°F11.4°C 93% 2.0 mph S3.2 kmh S 7.0 mph11.3 kmh 30.40 in1029.5 mb 0.00 in0.0 mm 0.00 in0.0 mm 0.02 in0.5 mm
10:30 AM 54.5°F12.5°C 52.5°F11.4°C 93% 1.0 mph S1.6 kmh S 5.0 mph8.0 kmh 30.40 in1029.5 mb 0.00 in0.0 mm 0.00 in0.0 mm 0.02 in0.5 mm
10:20 AM 54.3°F12.4°C 52.3°F11.3°C 93% 2.0 mph SSE3.2 kmh SSE 5.0 mph8.0 kmh 30.41 in1029.8 mb 0.00 in0.0 mm 0.00 in0.0 mm 0.02 in0.5 mm
10:10 AM 54.3°F12.4°C 52.0°F11.1°C 92% 1.0 mph S1.6 kmh S 6.0 mph9.7 kmh 30.41 in1029.8 mb 0.00 in0.0 mm 0.00 in0.0 mm 0.02 in0.5 mm
10:00 AM 54.3°F12.4°C 52.3°F11.3°C 93% 1.0 mph SW1.6 kmh SW 4.0 mph6.4 kmh 30.40 in1029.5 mb 0.00 in0.0 mm 0.00 in0.0 mm 0.02 in0.5 mm
09:50 AM 54.7°F12.6°C 52.3°F11.3°C 92% 1.0 mph SW1.6 kmh SW 3.0 mph4.8 kmh 30.41 in1029.8 mb 0.00 in0.0 mm 0.00 in0.0 mm 0.02 in0.5 mm
09:40 AM 54.5°F12.5°C 52.0°F11.1°C 91% 1.0 mph S1.6 kmh S 5.0 mph8.0 kmh 30.41 in1029.8 mb 0.00 in0.0 mm 0.00 in0.0 mm 0.02 in0.5 mm
09:30 AM 54.7°F12.6°C 51.8°F11.0°C 90% 2.0 mph S3.2 kmh S 5.0 mph8.0 kmh 30.41 in1029.8 mb 0.00 in0.0 mm 0.00 in0.0 mm 0.02 in0.5 mm
09:20 AM 54.5°F12.5°C 51.6°F10.9°C 90% 2.0 mph SSE3.2 kmh SSE 5.0 mph8.0 kmh 30.40 in1029.5 mb 0.00 in0.0 mm 0.00 in0.0 mm 0.02 in0.5 mm
09:10 AM 54.3°F12.4°C 51.4°F10.8°C 90% 2.0 mph S3.2 kmh S 5.0 mph8.0 kmh 30.40 in1029.5 mb 0.01 in0.3 mm 0.00 in0.0 mm 0.02 in0.5 mm
09:00 AM 54.1°F12.3°C 51.6°F10.9°C 91% 1.0 mph SSE1.6 kmh SSE 5.0 mph8.0 kmh 30.40 in1029.5 mb 0.01 in0.3 mm 0.00 in0.0 mm 0.02 in0.5 mm
08:50 AM 54.0°F12.2°C 51.6°F10.9°C 92% 1.0 mph S1.6 kmh S 5.0 mph8.0 kmh 30.40 in1029.5 mb 0.01 in0.3 mm 0.00 in0.0 mm 0.02 in0.5 mm
08:40 AM 53.8°F12.1°C 52.0°F11.1°C 94% 1.0 mph SW1.6 kmh SW 3.0 mph4.8 kmh 30.39 in1029.1 mb 0.01 in0.3 mm 0.00 in0.0 mm 0.02 in0.5 mm
08:30 AM 53.4°F11.9°C 51.8°F11.0°C 94% 1.0 mph SW1.6 kmh SW 4.0 mph6.4 kmh 30.39 in1029.1 mb 0.01 in0.3 mm 0.00 in0.0 mm 0.02 in0.5 mm
08:20 AM 53.2°F11.8°C 51.8°F11.0°C 95% Calm Calm 2.0 mph3.2 kmh 30.39 in1029.1 mb 0.01 in0.3 mm 0.06 in1.5 mm 0.02 in0.5 mm
08:10 AM 53.1°F11.7°C 51.6°F10.9°C 95% Calm Calm 2.0 mph3.2 kmh 30.38 in1028.8 mb 0.00 in0.0 mm 0.00 in0.0 mm 0.01 in0.3 mm
08:00 AM 52.9°F11.6°C 51.8°F11.0°C 96% Calm Calm 2.0 mph3.2 kmh 30.37 in1028.4 mb 0.01 in0.3 mm 0.00 in0.0 mm 0.01 in0.3 mm
07:50 AM 52.5°F11.4°C 51.4°F10.8°C 96% Calm Calm 2.0 mph3.2 kmh 30.37 in1028.4 mb 0.01 in0.3 mm 0.00 in0.0 mm 0.01 in0.3 mm
07:40 AM 52.3°F11.3°C 51.3°F10.7°C 96% Calm Calm 2.0 mph3.2 kmh 30.37 in1028.4 mb 0.01 in0.3 mm 0.00 in0.0 mm 0.01 in0.3 mm
07:30 AM 52.3°F11.3°C 51.3°F10.7°C 96% Calm Calm 2.0 mph3.2 kmh 30.36 in1028.1 mb 0.01 in0.3 mm 0.00 in0.0 mm 0.01 in0.3 mm
07:20 AM 52.0°F11.1°C 50.9°F10.5°C 96% Calm Calm 1.0 mph1.6 kmh 30.36 in1028.1 mb 0.01 in0.3 mm 0.00 in0.0 mm 0.01 in0.3 mm
07:10 AM 52.0°F11.1°C 50.5°F10.3°C 95% Calm Calm 2.0 mph3.2 kmh 30.35 in1027.8 mb 0.01 in0.3 mm 0.06 in1.5 mm 0.01 in0.3 mm
07:00 AM 51.6°F10.9°C 50.4°F10.2°C 95% Calm Calm -- 30.36 in1028.1 mb 0.00 in0.0 mm 0.00 in0.0 mm 0.00 in0.0 mm
06:50 AM 51.6°F10.9°C 50.4°F10.2°C 95% Calm Calm 1.0 mph1.6 kmh 30.35 in1027.8 mb 0.00 in0.0 mm 0.00 in0.0 mm 0.00 in0.0 mm
06:40 AM 51.6°F10.9°C 50.2°F10.1°C 95% Calm Calm 2.0 mph3.2 kmh 30.34 in1027.4 mb 0.00 in0.0 mm 0.00 in0.0 mm 0.00 in0.0 mm
06:30 AM 51.3°F10.7°C 50.0°F10.0°C 95% Calm Calm 1.0 mph1.6 kmh 30.34 in1027.4 mb 0.00 in0.0 mm 0.00 in0.0 mm 0.00 in0.0 mm
06:20 AM 51.3°F10.7°C 50.2°F10.1°C 96% Calm Calm 1.0 mph1.6 kmh 30.34 in1027.4 mb 0.00 in0.0 mm 0.00 in0.0 mm 0.00 in0.0 mm
06:10 AM 51.1°F10.6°C 49.8°F9.9°C 96% Calm Calm 1.0 mph1.6 kmh 30.33 in1027.1 mb 0.00 in0.0 mm 0.00 in0.0 mm 0.00 in0.0 mm
06:00 AM 50.7°F10.4°C 49.6°F9.8°C 96% 1.0 mph WSW1.6 kmh WSW 2.0 mph3.2 kmh 30.33 in1027.1 mb 0.00 in0.0 mm 0.00 in0.0 mm 0.00 in0.0 mm
05:50 AM 50.4°F10.2°C 49.3°F9.6°C 96% 1.0 mph WSW1.6 kmh WSW 2.0 mph3.2 kmh 30.32 in1026.8 mb 0.00 in0.0 mm 0.00 in0.0 mm 0.00 in0.0 mm
05:40 AM 49.8°F9.9°C 48.7°F9.3°C 96% 1.0 mph WSW1.6 kmh WSW 2.0 mph3.2 kmh 30.32 in1026.8 mb 0.00 in0.0 mm 0.00 in0.0 mm 0.00 in0.0 mm
05:30 AM 49.5°F9.7°C 48.7°F9.3°C 97% Calm Calm 2.0 mph3.2 kmh 30.32 in1026.8 mb 0.00 in0.0 mm 0.00 in0.0 mm 0.00 in0.0 mm
05:20 AM 49.5°F9.7°C 48.4°F9.1°C 96% 1.0 mph WSW1.6 kmh WSW 3.0 mph4.8 kmh 30.32 in1026.8 mb 0.00 in0.0 mm 0.00 in0.0 mm 0.00 in0.0 mm
05:10 AM 49.1°F9.5°C 48.0°F8.9°C 96% 1.0 mph SW1.6 kmh SW 2.0 mph3.2 kmh 30.31 in1026.4 mb 0.00 in0.0 mm 0.00 in0.0 mm 0.00 in0.0 mm
05:00 AM 49.1°F9.5°C 48.0°F8.9°C 96% 1.0 mph SW1.6 kmh SW 2.0 mph3.2 kmh 30.32 in1026.8 mb 0.00 in0.0 mm 0.00 in0.0 mm 0.00 in0.0 mm
04:50 AM 48.9°F9.4°C 47.8°F8.8°C 96% 1.0 mph SW1.6 kmh SW 2.0 mph3.2 kmh 30.31 in1026.4 mb 0.00 in0.0 mm 0.00 in0.0 mm 0.00 in0.0 mm
04:40 AM 48.9°F9.4°C 47.8°F8.8°C 96% 1.0 mph SW1.6 kmh SW 2.0 mph3.2 kmh 30.31 in1026.4 mb 0.00 in0.0 mm 0.00 in0.0 mm 0.00 in0.0 mm
04:30 AM 48.9°F9.4°C 48.0°F8.9°C 97% 1.0 mph SW1.6 kmh SW 2.0 mph3.2 kmh 30.30 in1026.1 mb 0.00 in0.0 mm 0.00 in0.0 mm 0.00 in0.0 mm
04:20 AM 48.7°F9.3°C 47.7°F8.7°C 96% 1.0 mph SW1.6 kmh SW 2.0 mph3.2 kmh 30.30 in1026.1 mb 0.00 in0.0 mm 0.00 in0.0 mm 0.00 in0.0 mm
04:10 AM 48.7°F9.3°C 47.7°F8.7°C 96% 1.0 mph SW1.6 kmh SW 2.0 mph3.2 kmh 30.30 in1026.1 mb 0.00 in0.0 mm 0.00 in0.0 mm 0.00 in0.0 mm
04:00 AM 48.7°F9.3°C 47.7°F8.7°C 96% 1.0 mph SW1.6 kmh SW 2.0 mph3.2 kmh 30.30 in1026.1 mb 0.00 in0.0 mm 0.00 in0.0 mm 0.00 in0.0 mm
03:50 AM 48.6°F9.2°C 47.5°F8.6°C 96% 1.0 mph SW1.6 kmh SW 2.0 mph3.2 kmh 30.30 in1026.1 mb 0.00 in0.0 mm 0.00 in0.0 mm 0.00 in0.0 mm
03:40 AM 48.6°F9.2°C 47.5°F8.6°C 96% 1.0 mph SW1.6 kmh SW 2.0 mph3.2 kmh 30.30 in1026.1 mb 0.00 in0.0 mm 0.00 in0.0 mm 0.00 in0.0 mm
03:30 AM 48.6°F9.2°C 47.5°F8.6°C 96% 1.0 mph SW1.6 kmh SW 2.0 mph3.2 kmh 30.30 in1026.1 mb 0.00 in0.0 mm 0.00 in0.0 mm 0.00 in0.0 mm
03:20 AM 48.4°F9.1°C 46.9°F8.3°C 95% 1.0 mph SW1.6 kmh SW 2.0 mph3.2 kmh 30.30 in1026.1 mb 0.00 in0.0 mm 0.00 in0.0 mm 0.00 in0.0 mm
03:10 AM 48.2°F9.0°C 46.8°F8.2°C 95% 1.0 mph SW1.6 kmh SW 3.0 mph4.8 kmh 30.30 in1026.1 mb 0.00 in0.0 mm 0.00 in0.0 mm 0.00 in0.0 mm
03:00 AM 48.0°F8.9°C 46.8°F8.2°C 95% 1.0 mph SW1.6 kmh SW 2.0 mph3.2 kmh 30.30 in1026.1 mb 0.00 in0.0 mm 0.00 in0.0 mm 0.00 in0.0 mm
02:50 AM 48.2°F9.0°C 46.8°F8.2°C 95% 1.0 mph SW1.6 kmh SW 2.0 mph3.2 kmh 30.30 in1026.1 mb 0.00 in0.0 mm 0.00 in0.0 mm 0.00 in0.0 mm
02:40 AM 48.4°F9.1°C 46.9°F8.3°C 95% 1.0 mph SW1.6 kmh SW 2.0 mph3.2 kmh 30.30 in1026.1 mb 0.00 in0.0 mm 0.00 in0.0 mm 0.00 in0.0 mm
02:30 AM 48.0°F8.9°C 46.8°F8.2°C 95% 1.0 mph SW1.6 kmh SW 3.0 mph4.8 kmh 30.30 in1026.1 mb 0.00 in0.0 mm 0.00 in0.0 mm 0.00 in0.0 mm
02:20 AM 48.2°F9.0°C 46.8°F8.2°C 95% 1.0 mph SW1.6 kmh SW 2.0 mph3.2 kmh 30.30 in1026.1 mb 0.00 in0.0 mm 0.00 in0.0 mm 0.00 in0.0 mm
02:10 AM 48.2°F9.0°C 46.8°F8.2°C 95% 1.0 mph SW1.6 kmh SW 2.0 mph3.2 kmh 30.30 in1026.1 mb 0.00 in0.0 mm 0.00 in0.0 mm 0.00 in0.0 mm
02:00 AM 48.4°F9.1°C 46.6°F8.1°C 94% 1.0 mph SW1.6 kmh SW 2.0 mph3.2 kmh 30.30 in1026.1 mb 0.00 in0.0 mm 0.00 in0.0 mm 0.00 in0.0 mm
01:50 AM 48.6°F9.2°C 46.9°F8.3°C 94% 1.0 mph SW1.6 kmh SW 2.0 mph3.2 kmh 30.30 in1026.1 mb 0.00 in0.0 mm 0.00 in0.0 mm 0.00 in0.0 mm
01:40 AM 48.7°F9.3°C 47.1°F8.4°C 94% 1.0 mph SW1.6 kmh SW 2.0 mph3.2 kmh 30.30 in1026.1 mb 0.00 in0.0 mm 0.00 in0.0 mm 0.00 in0.0 mm
01:30 AM 48.9°F9.4°C 47.3°F8.5°C 94% 1.0 mph SW1.6 kmh SW 2.0 mph3.2 kmh 30.30 in1026.1 mb 0.00 in0.0 mm 0.00 in0.0 mm 0.00 in0.0 mm
01:20 AM 49.1°F9.5°C 47.5°F8.6°C 94% 1.0 mph SW1.6 kmh SW 2.0 mph3.2 kmh 30.30 in1026.1 mb 0.00 in0.0 mm 0.00 in0.0 mm 0.00 in0.0 mm
01:10 AM 49.3°F9.6°C 47.7°F8.7°C 94% 1.0 mph SW1.6 kmh SW 2.0 mph3.2 kmh 30.30 in1026.1 mb 0.00 in0.0 mm 0.00 in0.0 mm 0.00 in0.0 mm
01:00 AM 49.5°F9.7°C 47.7°F8.7°C 94% 1.0 mph SW1.6 kmh SW 2.0 mph3.2 kmh 30.30 in1026.1 mb 0.00 in0.0 mm 0.00 in0.0 mm 0.00 in0.0 mm
12:50 AM 49.5°F9.7°C 47.8°F8.8°C 94% 1.0 mph SW1.6 kmh SW 3.0 mph4.8 kmh 30.30 in1026.1 mb 0.00 in0.0 mm 0.00 in0.0 mm 0.00 in0.0 mm
12:40 AM 49.5°F9.7°C 47.7°F8.7°C 94% 1.0 mph ESE1.6 kmh ESE 3.0 mph4.8 kmh 30.30 in1026.1 mb 0.00 in0.0 mm 0.00 in0.0 mm 0.00 in0.0 mm
12:30 AM 49.5°F9.7°C 47.7°F8.7°C 94% 1.0 mph ESE1.6 kmh ESE 2.0 mph3.2 kmh 30.30 in1026.1 mb 0.00 in0.0 mm 0.00 in0.0 mm 0.00 in0.0 mm
12:20 AM 49.5°F9.7°C 47.5°F8.6°C 93% Calm Calm 1.0 mph1.6 kmh 30.30 in1026.1 mb 0.00 in0.0 mm 0.00 in0.0 mm 0.00 in0.0 mm
12:10 AM 49.6°F9.8°C 48.0°F8.9°C 94% 1.0 mph ESE1.6 kmh ESE 2.0 mph3.2 kmh 30.30 in1026.1 mb 0.00 in0.0 mm 0.00 in0.0 mm 0.00 in0.0 mm
12:00 AM 49.8°F9.9°C 47.8°F8.8°C 93% Calm Calm 1.0 mph1.6 kmh 30.31 in1026.4 mb 0.00 in0.0 mm 0.00 in0.0 mm 0.00 in0.0 mm